Winter Park, CO (80482)

9:26 AM MDT on August 30, 2014 (GMT -0600)
Winter Park Ranch | Change Station
CLOSE
Current Station
Personal Weather Station
Location: Winter Park, CO
Elevation: 8878 ft
Nearby Weather Stations

Elev 8878 ft 39.95 °N, 105.80 °W | Updated 1 minute ago

Clear
Clear
46.9 °F
Feels Like 47 °F
N
1.1
Wind Variable Wind from NE
Gusts 4.0 mph

Today
High -- | Low -- °F
--% Chance of Precip.
Yesterday
High -- | Low -- °F
Precip. -- in
6:29 AM 7:37 PM
Waxing Crescent, 22% visible
Pressure 30.31 in
Visibility 10.0 miles
Clouds Clear
Windchill 47 °F
Dew Point 41 °F
Humidity 80%
Rainfall 0.00 in
Snow Depth 0 in , 1 in , 0 in
UV 3 out of 12
Pollen 10.50 out of 12
Air Quality Not available.
Flu Activity Not available.
METAR K20V 301517Z AUTO 00000KT 10SM CLR 10/05 A3031 RMK AO2

More Conditions Fewer Conditions

Pressure 30.31 in
Visibility 10.0 miles
Clouds Clear
Windchill 47 °F
Dew Point 41 °F
Humidity 80%
Rainfall 0.00 in
Snow Depth 0 in , 1 in , 0 in
UV 3 out of 12
Pollen 10.50 out of 12
Air Quality Not available.
Flu Activity Not available.
METAR K20V 301517Z AUTO 00000KT 10SM CLR 10/05 A3031 RMK AO2

More Conditions Fewer Conditions

10-Day Weather Forecast

Almanac

Astronomy

Aug. 30, 2014 Rise Set
Actual Time 6:29 AM MDT 7:37 PM MDT
Civil Twilight 6:01 AM MDT 8:05 PM MDT
Nautical Twilight 5:28 AM MDT 8:38 PM MDT
Astronomical Twilight 4:53 AM MDT 9:13 PM MDT
Moon 11:19 AM MDT 10:13 PM MDT
Length of Visible Light 14h 04m
Length of Day
13h 08m
Tomorrow will be 2m 30s shorter.
Waxing Crescent, 22% of the Moon is Illuminated
Today
Waxing Crescent
Sep 2
First Quarter
Sep 8
Full
Sep 15
Last Quarter
Sep 24
New

Today's Extremes

State Highs State Lows

Community

WunderPhotos

Upload Photos

1,748,548 photos uploaded!

WunderBlogs® & News

Nearby

Snow Depth

Station Depth Elevation
Jones Pass 0 in 10400 ft
University Camp 1 in 10300 ft
Niwot 0 in 9910 ft
Middle Fork Camp 0 in 9000 ft
Loveland Basin 7 in 11400 ft

Earthquake Activity

City Distance Mag. Time & Date
No recent earthquake activity has been reported nearby.
Minimum magnitude displayed is 2.5.

Coastal Water Temperatures

Place Temperature
No Stations Reporting

Nearby Weather Stations